Time;durP1;ratioP1;P1;durP2;ratioP2;P2;SDS_P1;SDS_P2;PMS_P1;PMS_P2;Temp;Humidity;BMP_temperature;BMP_pressure;BME280_temperature;BME280_humidity;BME280_pressure;Samples;Min_cycle;Max_cycle;Signal;HPM_P1;HPM_P2
2021/07/07 00:00:59;;;;;;;14.93;10.27;;;563.80;2432.00;;;;;;5072411;28;20029;-68
2021/07/07 00:03:26;;;;;;;15.18;10.77;;;563.80;2432.00;;;;;;5072059;28;20044;-68
2021/07/07 00:05:52;;;;;;;18.58;10.85;;;563.90;2432.00;;;;;;5072470;28;20020;-68
2021/07/07 00:08:17;;;;;;;17.23;10.52;;;563.80;2432.00;;;;;;5072507;28;20040;-68
2021/07/07 00:10:43;;;;;;;14.75;10.45;;;564.00;2432.00;;;;;;5072342;28;20031;-68
2021/07/07 00:13:09;;;;;;;14.60;11.20;;;564.00;2432.00;;;;;;5072196;28;20083;-69
2021/07/07 00:15:35;;;;;;;16.13;10.93;;;563.90;2432.00;;;;;;5072225;28;20563;-69
2021/07/07 00:18:06;;;;;;;16.58;10.40;;;564.00;2432.00;;;;;;5072252;28;20029;-67
2021/07/07 00:20:44;;;;;;;13.25;10.15;;;563.90;2432.00;;;;;;5072059;28;20029;-67
2021/07/07 00:23:11;;;;;;;12.85;10.65;;;563.90;2432.00;;;;;;5072191;28;20036;-68
2021/07/07 00:25:37;;;;;;;13.50;10.93;;;563.90;2432.00;;;;;;5072282;28;20027;-68
2021/07/07 00:28:03;;;;;;;14.45;11.23;;;563.90;2432.00;;;;;;5072146;28;20107;-68
2021/07/07 00:30:30;;;;;;;13.98;10.95;;;563.80;2432.00;;;;;;5072300;28;20020;-69
2021/07/07 00:32:56;;;;;;;15.95;11.45;;;563.80;2432.00;;;;;;5066266;28;20027;-69
2021/07/07 00:35:23;;;;;;;15.90;11.82;;;563.70;2432.00;;;;;;5069178;28;20024;-68
2021/07/07 00:37:48;;;;;;;14.48;11.23;;;563.60;2432.00;;;;;;5072023;28;20069;-67
2021/07/07 00:40:15;;;;;;;16.90;11.18;;;563.60;2432.00;;;;;;5072008;28;20056;-68
2021/07/07 00:42:40;;;;;;;17.38;12.27;;;563.50;2432.00;;;;;;5072199;28;20024;-68
2021/07/07 00:45:07;;;;;;;16.15;11.90;;;563.40;2432.00;;;;;;5071846;28;20108;-68
2021/07/07 00:47:33;;;;;;;16.63;11.98;;;563.40;2432.00;;;;;;5072255;28;20383;-70
2021/07/07 00:49:58;;;;;;;17.77;12.15;;;563.40;2432.00;;;;;;5071809;28;20021;-69
2021/07/07 00:52:24;;;;;;;14.63;11.65;;;563.20;2432.00;;;;;;5072270;28;20036;-69
2021/07/07 00:54:51;;;;;;;17.77;12.40;;;538.50;2406.40;;;;;;5071991;28;20028;-68
2021/07/07 00:57:17;;;;;;;18.67;13.18;;;563.20;2432.00;;;;;;5071749;28;20414;-68
2021/07/07 00:59:46;;;;;;;16.58;12.32;;;563.20;2432.00;;;;;;5071894;28;20467;-68
2021/07/07 01:02:17;;;;;;;24.23;13.07;;;538.50;2406.40;;;;;;5071761;28;20033;-68
2021/07/07 01:04:43;;;;;;;22.83;14.52;;;538.50;2406.40;;;;;;5071645;28;20108;-68
2021/07/07 01:07:09;;;;;;;17.50;12.73;;;538.40;2406.40;;;;;;5071651;28;20059;-69
2021/07/07 01:09:36;;;;;;;19.85;13.60;;;538.30;2406.40;;;;;;5071868;28;20459;-68
2021/07/07 01:12:02;;;;;;;17.67;12.95;;;538.30;2406.40;;;;;;5074648;28;20457;-69
2021/07/07 01:14:27;;;;;;;17.90;12.70;;;538.30;2406.40;;;;;;5075248;28;20047;-67
2021/07/07 01:16:54;;;;;;;16.88;12.40;;;538.40;2406.40;;;;;;5075352;28;20456;-68
2021/07/07 01:19:20;;;;;;;15.43;11.75;;;538.30;2406.40;;;;;;5075165;28;20095;-67
2021/07/07 01:21:47;;;;;;;14.73;11.88;;;538.30;2406.40;;;;;;5075176;28;20107;-68
2021/07/07 01:24:14;;;;;;;18.05;12.30;;;538.40;2406.40;;;;;;5075023;28;20016;-68
2021/07/07 01:26:40;;;;;;;14.93;12.20;;;538.20;2406.40;;;;;;5075430;28;20418;-67
2021/07/07 01:29:07;;;;;;;17.48;12.05;;;538.20;2406.40;;;;;;5075073;28;20501;-67
2021/07/07 01:31:33;;;;;;;16.63;11.77;;;538.20;2406.40;;;;;;5075008;28;20067;-67
2021/07/07 01:33:59;;;;;;;15.60;11.35;;;538.10;2406.40;;;;;;5074984;28;20052;-67
2021/07/07 01:36:25;;;;;;;14.95;11.60;;;538.10;2406.40;;;;;;5074871;28;20033;-67
2021/07/07 01:38:50;;;;;;;13.40;11.65;;;538.10;2406.40;;;;;;5074965;28;20038;-67
2021/07/07 01:41:16;;;;;;;16.42;11.32;;;538.20;2406.40;;;;;;5074521;28;20071;-69
2021/07/07 01:43:42;;;;;;;14.20;11.30;;;538.20;2406.40;;;;;;5074857;28;20063;-69
2021/07/07 01:46:08;;;;;;;15.18;11.10;;;538.30;2406.40;;;;;;5075023;28;20056;-68
2021/07/07 01:48:34;;;;;;;15.52;11.65;;;538.30;2406.40;;;;;;5074883;28;20066;-67
2021/07/07 01:50:59;;;;;;;15.18;11.10;;;538.30;2406.40;;;;;;5074630;28;20051;-67
2021/07/07 01:53:25;;;;;;;13.95;11.35;;;538.20;2406.40;;;;;;5074577;28;20024;-68
2021/07/07 01:55:54;;;;;;;15.82;10.80;;;538.20;2406.40;;;;;;5074639;28;20067;-69
2021/07/07 01:58:20;;;;;;;15.10;11.20;;;538.20;2406.40;;;;;;5074323;28;20120;-68
2021/07/07 02:00:46;;;;;;;18.70;11.15;;;538.00;2406.40;;;;;;5074588;28;20124;-68
2021/07/07 02:03:13;;;;;;;14.68;10.98;;;538.00;2406.40;;;;;;5074432;28;20052;-68
2021/07/07 02:05:39;;;;;;;15.40;11.40;;;537.90;2406.40;;;;;;5074411;28;20073;-68
2021/07/07 02:08:07;;;;;;;14.07;10.80;;;538.00;2406.40;;;;;;5074401;28;20495;-68
2021/07/07 02:10:34;;;;;;;16.35;11.23;;;538.00;2406.40;;;;;;5074547;28;20021;-68
2021/07/07 02:13:01;;;;;;;14.10;10.93;;;538.00;2406.40;;;;;;5074271;28;20028;-68
2021/07/07 02:15:30;;;;;;;13.35;11.32;;;538.00;2406.40;;;;;;5074056;28;20509;-68
2021/07/07 02:17:57;;;;;;;13.27;11.40;;;538.00;2406.40;;;;;;5074218;28;20025;-69
2021/07/07 02:20:24;;;;;;;14.80;11.68;;;538.00;2406.40;;;;;;5074204;28;20086;-68
2021/07/07 02:22:50;;;;;;;15.38;11.82;;;537.90;2406.40;;;;;;5074118;28;20479;-68
2021/07/07 02:25:23;;;;;;;15.45;11.85;;;537.90;2406.40;;;;;;5073998;28;20028;-68
2021/07/07 02:27:50;;;;;;;15.32;11.30;;;537.80;2406.40;;;;;;5073804;28;20028;-68
2021/07/07 02:30:18;;;;;;;14.68;11.77;;;537.70;2406.40;;;;;;5073991;28;20479;-67
2021/07/07 02:32:45;;;;;;;14.25;11.70;;;512.90;2380.80;;;;;;5073793;28;20103;-69
2021/07/07 02:35:15;;;;;;;16.25;12.02;;;512.90;2380.80;;;;;;5073831;28;20029;-73
2021/07/07 02:37:42;;;;;;;13.45;11.38;;;512.90;2380.80;;;;;;5073738;28;20024;-73
2021/07/07 02:40:10;;;;;;;14.40;11.52;;;512.90;2380.80;;;;;;5073873;28;20433;-73
2021/07/07 02:42:36;;;;;;;17.15;11.60;;;512.80;2380.80;;;;;;5073858;28;20082;-70
2021/07/07 02:45:03;;;;;;;12.95;11.35;;;512.90;2380.80;;;;;;5072181;28;20024;-73
2021/07/07 02:47:29;;;;;;;17.77;11.77;;;512.80;2380.80;;;;;;5073725;28;20024;-73
2021/07/07 02:49:54;;;;;;;16.30;12.27;;;512.70;2380.80;;;;;;5073229;28;20078;-69
2021/07/07 02:52:20;;;;;;;16.95;12.38;;;512.70;2380.80;;;;;;5073571;28;20017;-74
2021/07/07 02:54:48;;;;;;;15.63;11.98;;;512.70;2380.80;;;;;;5073778;28;20127;-72
2021/07/07 02:57:15;;;;;;;17.02;12.35;;;512.60;2380.80;;;;;;5073382;28;20486;-73
2021/07/07 02:59:41;;;;;;;17.90;12.20;;;512.60;2380.80;;;;;;5073494;28;20032;-69
2021/07/07 03:02:08;;;;;;;17.30;12.52;;;512.60;2380.80;;;;;;5073217;28;20026;-67
2021/07/07 03:04:34;;;;;;;14.80;11.55;;;512.50;2380.80;;;;;;5073116;28;20024;-77
2021/07/07 03:07:00;;;;;;;15.95;12.05;;;512.40;2380.80;;;;;;5073165;28;20025;-76
2021/07/07 03:09:25;;;;;;;17.15;11.75;;;512.40;2380.80;;;;;;5073246;28;20413;-73
2021/07/07 03:11:51;;;;;;;15.30;12.00;;;512.30;2380.80;;;;;;5073032;28;20099;-77
2021/07/07 03:14:17;;;;;;;15.90;11.90;;;512.30;2380.80;;;;;;5073095;28;20043;-79
2021/07/07 03:16:43;;;;;;;16.75;12.40;;;512.30;2380.80;;;;;;5073301;28;20029;-79
2021/07/07 03:19:08;;;;;;;20.73;12.50;;;512.20;2380.80;;;;;;5073034;28;20355;-79
2021/07/07 03:21:34;;;;;;;19.38;12.27;;;512.20;2380.80;;;;;;5073096;28;20028;-69
2021/07/07 03:24:00;;;;;;;16.02;11.95;;;512.30;2380.80;;;;;;5071493;28;20416;-69
2021/07/07 03:26:25;;;;;;;14.60;12.20;;;512.30;2380.80;;;;;;5072994;28;20017;-73
2021/07/07 03:28:51;;;;;;;15.38;11.95;;;512.30;2380.80;;;;;;5072665;28;20025;-72
2021/07/07 03:31:17;;;;;;;18.50;11.85;;;512.30;2380.80;;;;;;5072838;28;20020;-76
2021/07/07 03:33:43;;;;;;;16.73;12.38;;;512.30;2380.80;;;;;;5072471;28;20032;-77
2021/07/07 03:36:09;;;;;;;15.57;11.77;;;512.40;2380.80;;;;;;5072569;28;20032;-72
2021/07/07 03:38:34;;;;;;;14.82;11.77;;;512.40;2380.80;;;;;;5072766;28;20025;-72
2021/07/07 03:41:00;;;;;;;17.42;12.10;;;512.30;2380.80;;;;;;5072862;28;20082;-78
2021/07/07 03:43:26;;;;;;;15.55;11.77;;;512.30;2380.80;;;;;;5072645;28;20050;-79
2021/07/07 03:45:51;;;;;;;16.23;11.93;;;512.40;2380.80;;;;;;5072627;28;20013;-73
2021/07/07 03:48:17;;;;;;;19.60;12.20;;;512.40;2380.80;;;;;;5072654;28;20086;-77
2021/07/07 03:50:43;;;;;;;22.58;11.95;;;512.40;2380.80;;;;;;5072494;28;20025;-70
2021/07/07 03:53:09;;;;;;;14.95;11.40;;;512.40;2380.80;;;;;;5072452;28;20020;-71
2021/07/07 03:55:36;;;;;;;17.35;11.35;;;512.30;2380.80;;;;;;5072497;28;20062;-76
2021/07/07 03:58:02;;;;;;;16.20;11.07;;;512.40;2380.80;;;;;;5072943;28;20425;-72
2021/07/07 04:00:29;;;;;;;14.43;11.40;;;512.30;2380.80;;;;;;5072414;28;20016;-77
2021/07/07 04:02:56;;;;;;;15.02;11.32;;;512.40;2380.80;;;;;;5072519;28;20505;-78
2021/07/07 04:05:22;;;;;;;14.70;11.30;;;512.30;2380.80;;;;;;5072385;28;20019;-77
2021/07/07 04:07:49;;;;;;;16.20;11.30;;;512.30;2380.80;;;;;;5072568;28;20024;-78
2021/07/07 04:10:17;;;;;;;15.00;11.15;;;512.30;2380.80;;;;;;5072344;28;20025;-79
2021/07/07 04:12:45;;;;;;;14.07;11.48;;;512.40;2380.80;;;;;;5072832;28;20425;-69
2021/07/07 04:15:12;;;;;;;14.88;11.38;;;512.50;2380.80;;;;;;5072210;28;20049;-72
2021/07/07 04:17:38;;;;;;;15.43;11.10;;;512.60;2380.80;;;;;;5072442;28;20025;-73
2021/07/07 04:20:06;;;;;;;13.90;11.55;;;512.70;2380.80;;;;;;5072365;28;20039;-69
2021/07/07 04:22:32;;;;;;;14.40;11.73;;;512.80;2380.80;;;;;;5072337;28;20048;-74
2021/07/07 04:24:58;;;;;;;14.13;12.13;;;512.90;2380.80;;;;;;5072468;28;20137;-77
2021/07/07 04:27:24;;;;;;;14.45;11.48;;;512.90;2380.80;;;;;;5072244;28;20029;-73
2021/07/07 04:29:49;;;;;;;16.77;12.32;;;537.60;2406.40;;;;;;5072277;28;20025;-77
2021/07/07 04:32:18;;;;;;;14.10;11.43;;;537.70;2406.40;;;;;;5074985;28;20021;-79
2021/07/07 04:34:45;;;;;;;13.45;11.80;;;537.80;2406.40;;;;;;5072743;28;20490;-79
2021/07/07 04:37:11;;;;;;;13.73;11.57;;;537.90;2406.40;;;;;;5072168;28;20064;-78
2021/07/07 04:39:37;;;;;;;14.90;11.93;;;537.90;2406.40;;;;;;5072070;28;20055;-77
2021/07/07 04:42:03;;;;;;;14.63;11.27;;;538.00;2406.40;;;;;;5072199;28;20025;-78
2021/07/07 04:44:29;;;;;;;16.20;11.52;;;538.00;2406.40;;;;;;5072006;28;20082;-77
2021/07/07 04:46:54;;;;;;;15.73;11.80;;;538.00;2406.40;;;;;;5074604;28;20465;-75
2021/07/07 04:49:20;;;;;;;13.88;11.27;;;538.10;2406.40;;;;;;5075994;28;20103;-78
2021/07/07 04:51:46;;;;;;;16.00;11.30;;;538.30;2406.40;;;;;;5075774;28;20017;-79
2021/07/07 04:54:12;;;;;;;13.40;11.35;;;538.50;2406.40;;;;;;5075908;28;20445;-77
2021/07/07 04:56:37;;;;;;;14.68;11.18;;;589.10;2432.00;;;;;;5075890;28;20039;-73
2021/07/07 04:59:03;;;;;;;13.95;11.10;;;717.50;2432.00;;;;;;5075892;28;20055;-73
2021/07/07 05:01:29;;;;;;;13.52;11.38;;;820.00;2432.00;;;;;;5075758;28;20048;-77
2021/07/07 05:03:55;;;;;;;12.77;10.88;;;896.00;2073.60;;;;;;5075680;28;20028;-70
2021/07/07 05:06:20;;;;;;;14.02;10.32;;;947.30;1843.20;;;;;;5075620;28;20028;-73
2021/07/07 05:08:46;;;;;;;12.73;10.68;;;973.30;1715.20;;;;;;5075346;28;20017;-74
2021/07/07 05:11:12;;;;;;;11.52;10.32;;;973.50;1638.40;;;;;;5075491;28;20036;-73
2021/07/07 05:13:38;;;;;;;14.07;10.68;;;998.70;1612.80;;;;;;5075310;28;20106;-73
2021/07/07 05:16:04;;;;;;;10.98;9.88;;;999.10;1536.00;;;;;;5075646;28;20437;-78
2021/07/07 05:18:31;;;;;;;12.20;9.30;;;1024.00;1510.40;;;;;;5075397;28;20090;-78
2021/07/07 05:20:57;;;;;;;11.63;10.07;;;1024.90;1459.20;;;;;;5075218;28;20024;-78
2021/07/07 05:23:23;;;;;;;12.23;10.20;;;1024.70;1459.20;;;;;;5074146;28;20036;-73
2021/07/07 05:25:49;;;;;;;11.05;9.57;;;1049.60;1459.20;;;;;;5075139;28;20012;-70
2021/07/07 05:28:14;;;;;;;11.48;9.70;;;1050.50;1408.00;;;;;;5075418;28;20111;-71
2021/07/07 05:30:41;;;;;;;11.60;9.77;;;1050.40;1408.00;;;;;;5075153;28;20443;-77
2021/07/07 05:33:08;;;;;;;11.95;9.85;;;1050.50;1382.40;;;;;;5075276;28;20421;-76
2021/07/07 05:35:35;;;;;;;11.95;9.50;;;1050.50;1382.40;;;;;;5075054;28;20036;-78
2021/07/07 05:38:00;;;;;;;11.45;9.80;;;1075.90;1356.80;;;;;;5075211;28;20052;-78
2021/07/07 05:40:26;;;;;;;12.20;9.70;;;1024.40;1408.00;;;;;;5075442;28;20051;-78
2021/07/07 05:42:52;;;;;;;13.15;10.27;;;922.20;1536.00;;;;;;5074815;28;20103;-78
2021/07/07 05:45:20;;;;;;;11.90;10.07;;;845.70;1664.00;;;;;;5075148;28;20021;-76
2021/07/07 05:47:46;;;;;;;16.30;13.48;;;819.40;1740.80;;;;;;5075141;28;20044;-76
2021/07/07 05:50:12;;;;;;;12.55;10.75;;;793.70;1843.20;;;;;;5075061;28;20040;-76
2021/07/07 05:52:38;;;;;;;12.52;10.48;;;743.10;1894.40;;;;;;5075148;28;20455;-77
2021/07/07 05:55:04;;;;;;;12.98;10.82;;;717.30;1996.80;;;;;;5074510;28;20020;-78
2021/07/07 05:57:39;;;;;;;13.63;10.13;;;692.00;2048.00;;;;;;5074293;28;20029;-68
2021/07/07 06:00:14;;;;;;;12.32;10.00;;;691.60;2099.20;;;;;;5074755;28;20393;-72
2021/07/07 06:02:41;;;;;;;13.07;10.55;;;691.40;2150.40;;;;;;5074503;28;20029;-71
2021/07/07 06:05:09;;;;;;;11.32;10.20;;;666.50;2201.60;;;;;;5074201;28;20123;-77
2021/07/07 06:07:36;;;;;;;14.20;10.48;;;666.30;2252.80;;;;;;5074422;28;20017;-76
2021/07/07 06:10:03;;;;;;;12.85;11.15;;;666.30;2278.40;;;;;;5074400;28;20016;-77
2021/07/07 06:12:29;;;;;;;12.02;10.45;;;666.30;2304.00;;;;;;5074706;28;20013;-79
2021/07/07 06:14:54;;;;;;;12.18;10.65;;;666.50;2304.00;;;;;;5075146;28;20572;-80
2021/07/07 06:17:20;;;;;;;11.27;10.07;;;691.20;2329.60;;;;;;5075737;28;20024;-77
2021/07/07 06:19:46;;;;;;;13.57;10.07;;;666.30;2355.20;;;;;;5075073;28;20029;-78
2021/07/07 06:22:11;;;;;;;11.90;10.25;;;666.30;2380.80;;;;;;5074908;28;20024;-70
2021/07/07 06:24:37;;;;;;;12.02;10.40;;;666.30;2406.40;;;;;;5074009;28;20063;-70
2021/07/07 06:27:04;;;;;;;11.48;10.18;;;691.20;2406.40;;;;;;5074284;28;20053;-70
2021/07/07 06:29:29;;;;;;;14.18;10.15;;;666.50;2406.40;;;;;;5074154;28;20424;-69
2021/07/07 06:31:55;;;;;;;17.60;11.15;;;666.50;2406.40;;;;;;5058590;28;20104;-68
2021/07/07 06:34:21;;;;;;;13.32;10.52;;;691.20;2406.40;;;;;;5059417;28;20047;-67
2021/07/07 06:36:46;;;;;;;12.38;10.50;;;666.50;2406.40;;;;;;5058690;28;20036;-68
2021/07/07 06:39:12;;;;;;;12.45;10.68;;;666.50;2406.40;;;;;;5059490;28;20395;-67
2021/07/07 06:41:38;;;;;;;12.75;10.23;;;691.20;2406.40;;;;;;5064140;28;20032;-67
2021/07/07 06:44:04;;;;;;;13.52;10.30;;;691.60;2406.40;;;;;;5073960;28;20554;-67
2021/07/07 06:46:30;;;;;;;11.95;10.18;;;691.60;2380.80;;;;;;5074905;28;20025;-72
2021/07/07 06:48:56;;;;;;;12.63;10.20;;;691.70;2329.60;;;;;;5074648;28;20079;-69
2021/07/07 06:51:22;;;;;;;12.48;10.25;;;691.70;2329.60;;;;;;5073610;28;20028;-72
2021/07/07 06:53:48;;;;;;;11.63;10.38;;;691.70;2355.20;;;;;;5074293;28;20513;-72
2021/07/07 06:56:14;;;;;;;13.63;10.65;;;692.00;2355.20;;;;;;5074445;28;20028;-72
2021/07/07 06:58:39;;;;;;;12.00;10.40;;;716.80;2355.20;;;;;;5073420;28;20378;-69
2021/07/07 07:01:05;;;;;;;13.20;10.85;;;716.90;2355.20;;;;;;5073391;28;20099;-69
2021/07/07 07:03:31;;;;;;;13.93;11.00;;;717.10;2329.60;;;;;;5072984;28;20116;-70
2021/07/07 07:05:57;;;;;;;14.23;11.02;;;717.40;2329.60;;;;;;5073237;28;20052;-69
2021/07/07 07:08:23;;;;;;;11.95;9.82;;;717.30;2329.60;;;;;;5072596;28;20029;-68
2021/07/07 07:10:49;;;;;;;14.55;11.02;;;717.50;2329.60;;;;;;5045071;28;20021;-68
2021/07/07 07:13:15;;;;;;;14.30;10.68;;;717.70;2304.00;;;;;;5063233;28;20122;-71
2021/07/07 07:15:42;;;;;;;13.98;10.95;;;742.40;2304.00;;;;;;5034889;28;20025;-69
2021/07/07 07:18:08;;;;;;;13.52;10.80;;;742.60;2304.00;;;;;;5052702;28;20024;-69
2021/07/07 07:20:33;;;;;;;14.30;10.27;;;742.90;2278.40;;;;;;5058306;28;20096;-69
2021/07/07 07:23:00;;;;;;;12.63;10.38;;;743.30;2252.80;;;;;;5058238;28;20100;-73
2021/07/07 07:25:27;;;;;;;11.48;9.88;;;793.70;2201.60;;;;;;5053552;28;20039;-74
2021/07/07 07:27:55;;;;;;;12.90;10.10;;;870.60;1996.80;;;;;;5068829;28;20056;-74
2021/07/07 07:30:21;;;;;;;12.77;9.82;;;998.80;1740.80;;;;;;5066164;28;20029;-74
2021/07/07 07:32:49;;;;;;;13.18;10.00;;;1075.60;1510.40;;;;;;5067432;28;20100;-75
2021/07/07 07:35:18;;;;;;;12.93;10.52;;;1152.40;1382.40;;;;;;5067558;28;20032;-74
2021/07/07 07:37:53;;;;;;;11.45;9.30;;;1203.30;1280.00;;;;;;5066547;28;20374;-71
2021/07/07 07:40:47;;;;;;;11.43;9.50;;;1229.50;1228.80;;;;;;5068481;28;20513;-71
2021/07/07 07:43:11;;;;;;;13.55;9.88;;;1229.50;1177.60;;;;;;5065537;28;20127;-73
2021/07/07 07:45:38;;;;;;;17.75;9.82;;;1203.20;1177.60;;;;;;5073522;28;20103;-74
2021/07/07 07:48:05;;;;;;;11.20;9.20;;;1101.70;1254.40;;;;;;5073760;28;20052;-73
2021/07/07 07:50:32;;;;;;;12.18;9.57;;;1024.30;1356.80;;;;;;5073193;28;20024;-72
2021/07/07 07:52:58;;;;;;;13.18;10.02;;;972.80;1459.20;;;;;;5072689;28;20024;-70
2021/07/07 07:55:24;;;;;;;10.52;9.20;;;922.30;1484.80;;;;;;5072514;28;20382;-70
2021/07/07 07:57:50;;;;;;;12.15;10.15;;;922.00;1510.40;;;;;;5072809;28;20107;-70
2021/07/07 08:00:21;;;;;;;11.57;9.15;;;947.90;1459.20;;;;;;5072272;28;20127;-67
2021/07/07 08:02:48;;;;;;;11.20;8.65;;;1024.50;1382.40;;;;;;5072505;28;20381;-68
2021/07/07 08:05:14;;;;;;;9.88;8.88;;;1127.30;1280.00;;;;;;5072135;28;20031;-68
2021/07/07 08:07:41;;;;;;;9.27;8.30;;;1203.70;1177.60;;;;;;5072364;28;20017;-69
2021/07/07 08:10:09;;;;;;;10.23;8.40;;;1280.00;1152.00;;;;;;5072168;28;20052;-69
2021/07/07 08:12:36;;;;;;;9.40;8.30;;;1306.50;1075.20;;;;;;5072378;28;20025;-68
2021/07/07 08:15:03;;;;;;;14.77;9.00;;;1331.60;1126.40;;;;;;5072136;28;20048;-68
2021/07/07 08:17:29;;;;;;;10.05;8.10;;;1382.40;1100.80;;;;;;5072492;28;20017;-68
2021/07/07 08:19:55;;;;;;;10.05;8.02;;;1382.80;1100.80;;;;;;5073370;28;20036;-67
2021/07/07 08:22:20;;;;;;;10.52;7.97;;;1382.90;1075.20;;;;;;5076261;28;20032;-67
2021/07/07 08:24:46;;;;;;;10.02;8.00;;;1408.20;1049.60;;;;;;5076276;28;20031;-67
2021/07/07 08:27:13;;;;;;;9.18;7.50;;;1408.40;1024.00;;;;;;5074216;28;20033;-71
2021/07/07 08:29:39;;;;;;;9.57;7.38;;;1408.90;998.40;;;;;;5074310;28;20051;-72
2021/07/07 08:32:06;;;;;;;9.25;7.70;;;1434.10;1024.00;;;;;;5073362;28;20638;-70
2021/07/07 08:34:33;;;;;;;10.40;7.60;;;1433.90;1024.00;;;;;;5073328;28;20142;-69
2021/07/07 08:36:59;;;;;;;10.23;7.65;;;1408.70;998.40;;;;;;5074087;28;20017;-69
2021/07/07 08:39:25;;;;;;;10.73;7.00;;;1408.20;1024.00;;;;;;5072065;28;20032;-73
2021/07/07 08:41:51;;;;;;;9.40;7.43;;;1433.90;998.40;;;;;;5074388;28;20107;-73
2021/07/07 08:44:16;;;;;;;7.97;7.18;;;1434.50;972.80;;;;;;5075209;28;20103;-71
2021/07/07 08:46:42;;;;;;;10.85;7.25;;;1434.30;972.80;;;;;;5075977;28;20020;-72
2021/07/07 08:49:08;;;;;;;10.73;7.88;;;1434.30;972.80;;;;;;5076102;28;20079;-72
2021/07/07 08:51:40;;;;;;;9.73;7.32;;;1408.70;972.80;;;;;;5075972;28;20094;-71
2021/07/07 08:54:06;;;;;;;9.70;7.55;;;1357.50;1024.00;;;;;;5076340;28;20082;-72
2021/07/07 08:56:32;;;;;;;7.93;7.10;;;1280.90;1049.60;;;;;;5075696;28;20028;-69
2021/07/07 08:58:57;;;;;;;10.80;7.05;;;1228.80;1075.20;;;;;;5075736;28;20440;-67
2021/07/07 09:01:23;;;;;;;8.60;7.30;;;1152.00;1100.80;;;;;;5075752;28;20056;-71
2021/07/07 09:03:49;;;;;;;8.60;7.70;;;1101.10;1152.00;;;;;;5075404;28;20409;-69
2021/07/07 09:06:19;;;;;;;9.93;7.75;;;1050.50;1203.20;;;;;;5075959;28;20032;-73
2021/07/07 09:08:49;;;;;;;8.93;7.78;;;1024.70;1203.20;;;;;;5075871;28;20033;-72
2021/07/07 09:11:19;;;;;;;8.73;6.80;;;999.00;1228.80;;;;;;5075945;28;20029;-72
2021/07/07 09:13:49;;;;;;;8.82;6.80;;;998.40;1254.40;;;;;;5075301;28;20049;-73
2021/07/07 09:16:18;;;;;;;10.40;6.93;;;973.40;1280.00;;;;;;5075786;28;20089;-73
2021/07/07 09:18:44;;;;;;;10.77;7.18;;;948.10;1280.00;;;;;;5075763;28;20024;-72
2021/07/07 09:21:30;;;;;;;8.32;6.20;;;947.40;1305.60;;;;;;5075626;28;20383;-69
2021/07/07 09:23:58;;;;;;;6.68;5.70;;;947.20;1305.60;;;;;;5075036;28;20562;-68
2021/07/07 09:26:35;;;;;;;8.18;6.30;;;922.20;1305.60;;;;;;5075162;28;20528;-68
2021/07/07 09:29:01;;;;;;;11.63;6.78;;;922.00;1331.20;;;;;;5075143;28;20051;-67
2021/07/07 09:31:37;;;;;;;8.13;6.10;;;921.90;1331.20;;;;;;5074395;28;20116;-67
2021/07/07 09:34:17;;;;;;;7.60;6.03;;;921.60;1331.20;;;;;;5074887;28;20032;-67
2021/07/07 09:36:45;;;;;;;9.60;7.05;;;921.60;1356.80;;;;;;5075390;28;20465;-66
2021/07/07 09:39:12;;;;;;;7.40;5.95;;;896.80;1331.20;;;;;;5074840;28;20500;-67
2021/07/07 09:41:39;;;;;;;7.10;6.22;;;896.90;1305.60;;;;;;5074861;28;20036;-66
2021/07/07 09:44:06;;;;;;;6.85;6.00;;;896.80;1305.60;;;;;;5074857;28;20032;-67
2021/07/07 09:46:33;;;;;;;9.50;5.82;;;896.80;1305.60;;;;;;5074730;28;20548;-67
2021/07/07 09:48:59;;;;;;;8.05;5.97;;;896.70;1305.60;;;;;;5074806;28;20056;-66
2021/07/07 09:51:24;;;;;;;7.80;6.15;;;896.50;1305.60;;;;;;5074944;28;20064;-68
2021/07/07 09:53:50;;;;;;;7.55;6.43;;;896.40;1331.20;;;;;;5074868;28;20024;-71
2021/07/07 09:56:16;;;;;;;8.88;6.20;;;896.30;1331.20;;;;;;5074589;28;20114;-69
2021/07/07 09:58:42;;;;;;;7.57;6.10;;;896.00;1331.20;;;;;;5074711;28;20158;-67
2021/07/07 10:01:07;;;;;;;7.38;5.78;;;896.00;1305.60;;;;;;5074784;28;20074;-68
2021/07/07 10:03:34;;;;;;;7.30;5.88;;;896.00;1280.00;;;;;;5074521;28;20056;-72
2021/07/07 10:06:02;;;;;;;7.90;6.10;;;871.30;1280.00;;;;;;5074827;28;20016;-72
2021/07/07 10:08:28;;;;;;;8.68;6.28;;;871.30;1280.00;;;;;;5074927;28;20032;-72
2021/07/07 10:10:58;;;;;;;7.45;5.68;;;871.30;1331.20;;;;;;5074710;28;20056;-73
2021/07/07 10:13:26;;;;;;;6.68;5.68;;;871.00;1305.60;;;;;;5074559;28;20065;-71
2021/07/07 10:15:52;;;;;;;10.07;6.18;;;871.10;1331.20;;;;;;5074384;28;20016;-72
2021/07/07 10:18:18;;;;;;;6.78;5.93;;;871.10;1331.20;;;;;;5074471;28;20042;-71
2021/07/07 10:20:45;;;;;;;8.07;5.60;;;871.00;1305.60;;;;;;5074438;28;20471;-72
2021/07/07 10:23:12;;;;;;;8.60;5.88;;;871.10;1305.60;;;;;;5074760;28;20422;-71
2021/07/07 10:25:39;;;;;;;7.45;5.68;;;871.10;1305.60;;;;;;5073834;28;20386;-69
2021/07/07 10:28:13;;;;;;;6.90;6.10;;;871.10;1305.60;;;;;;5074132;28;20032;-69
2021/07/07 10:30:51;;;;;;;6.80;6.03;;;871.10;1305.60;;;;;;5073763;28;20474;-68
2021/07/07 10:33:17;;;;;;;10.02;6.05;;;871.10;1331.20;;;;;;5074019;28;20032;-73
2021/07/07 10:35:44;;;;;;;7.82;5.97;;;871.10;1331.20;;;;;;5074294;28;20017;-72
2021/07/07 10:38:10;;;;;;;12.52;5.90;;;871.10;1331.20;;;;;;5074117;28;20016;-72
2021/07/07 10:40:40;;;;;;;8.20;5.78;;;871.10;1331.20;;;;;;5074145;28;20025;-68
2021/07/07 10:43:07;;;;;;;7.50;6.20;;;871.10;1331.20;;;;;;5073017;28;20040;-69
2021/07/07 10:45:34;;;;;;;7.47;5.90;;;871.10;1305.60;;;;;;5073359;28;20043;-68
2021/07/07 10:48:23;;;;;;;6.85;6.03;;;870.90;1331.20;;;;;;5073527;28;20478;-68
2021/07/07 10:50:49;;;;;;;7.43;5.93;;;871.10;1382.40;;;;;;5073785;28;20043;-69
2021/07/07 10:53:22;;;;;;;8.65;5.78;;;871.10;1356.80;;;;;;5073550;28;20016;-71
2021/07/07 10:55:48;;;;;;;7.25;6.07;;;871.20;1331.20;;;;;;5073487;28;20095;-71
2021/07/07 10:58:34;;;;;;;6.85;5.38;;;871.20;1331.20;;;;;;5073313;28;20453;-68
2021/07/07 11:01:00;;;;;;;7.25;5.82;;;896.00;1305.60;;;;;;5073376;28;20032;-67
2021/07/07 11:03:39;;;;;;;7.75;5.35;;;871.30;1305.60;;;;;;5072948;28;20028;-69
2021/07/07 11:06:27;;;;;;;6.93;5.45;;;871.30;1305.60;;;;;;5073552;28;20036;-69
2021/07/07 11:09:14;;;;;;;6.28;5.15;;;896.00;1331.20;;;;;;5073458;28;20031;-69
2021/07/07 11:11:42;;;;;;;6.13;5.20;;;871.30;1305.60;;;;;;5073157;28;20483;-69
2021/07/07 11:14:20;;;;;;;7.63;4.90;;;896.00;1331.20;;;;;;5072942;28;20052;-69
2021/07/07 11:16:57;;;;;;;7.00;5.43;;;896.00;1254.40;;;;;;5073382;28;20105;-68
2021/07/07 11:19:42;;;;;;;7.38;5.40;;;896.10;1305.60;;;;;;5073481;28;20028;-73
2021/07/07 11:22:12;;;;;;;5.57;4.97;;;896.30;1254.40;;;;;;5072964;28;20016;-74
2021/07/07 11:24:46;;;;;;;8.75;5.63;;;896.40;1228.80;;;;;;5072996;28;20035;-69
2021/07/07 11:27:12;;;;;;;9.32;5.95;;;896.60;1254.40;;;;;;5073082;28;20040;-68
2021/07/07 11:29:38;;;;;;;7.38;5.72;;;896.70;1305.60;;;;;;5073048;28;20429;-69
2021/07/07 11:32:28;;;;;;;6.68;5.10;;;896.60;1280.00;;;;;;5072922;28;20028;-69
2021/07/07 11:34:56;;;;;;;7.03;5.07;;;896.80;1280.00;;;;;;5073034;28;20037;-70
2021/07/07 11:37:24;;;;;;;6.18;5.10;;;896.90;1228.80;;;;;;5072687;28;20398;-69
2021/07/07 11:40:15;;;;;;;6.82;5.28;;;896.90;1228.80;;;;;;5072703;28;20032;-70
2021/07/07 11:42:50;;;;;;;7.00;5.45;;;947.70;1203.20;;;;;;5072560;28;20081;-68
2021/07/07 11:45:20;;;;;;;6.88;5.30;;;1024.00;1152.00;;;;;;5072443;28;20104;-69
2021/07/07 11:47:55;;;;;;;5.38;4.88;;;1075.40;1075.20;;;;;;5072633;28;20029;-69
2021/07/07 11:50:21;;;;;;;6.47;5.03;;;1101.30;1100.80;;;;;;5072452;28;20031;-70
2021/07/07 11:53:05;;;;;;;6.85;5.07;;;1126.70;1075.20;;;;;;5072464;28;20097;-69
2021/07/07 11:55:57;;;;;;;7.28;4.90;;;1152.00;1075.20;;;;;;5072187;28;20027;-74
2021/07/07 11:58:47;;;;;;;6.28;5.20;;;1177.60;1024.00;;;;;;5072434;28;20027;-74
2021/07/07 12:01:17;;;;;;;5.38;4.70;;;1178.20;1024.00;;;;;;5046563;28;20036;-73
2021/07/07 12:03:52;;;;;;;6.90;5.00;;;1203.40;1024.00;;;;;;5053473;28;20031;-74
2021/07/07 12:06:18;;;;;;;5.60;4.75;;;1203.40;1024.00;;;;;;5048288;28;20029;-74